Zelenograd, Russia
Current Conditions -  °F | °C
As of 10:00 AM on Tuesday 21 Oct 2014 (Local Time) from UUEE Reporting Station
Overcast Overcast  
Wind Chill: 28°   Ceiling: 300
Heat Index: 34°   Visibility: 4mi
Dew Point: 34°   Wind: 7mph
Humidity: 100%   Direction: 40°NE
Pressure: 29.32"   Gusts: NA
Location:  55.94°N, 37.29°E
Report Text: UUEE 210700Z 04003MPS 6000 OVC003 01/01 Q0993 07290145 57290145NOSIG
Loading
Personal Weather Stations






























Interactive Weather Map
Tropical Storm Tracking
New forecast layout! Learn more

10-Day Weather Forecast

Advertisements
Track Severe Weather on mobile